Latest Weather Observations for Maningrida Airport

IDD60801

Issued at 4:51 am CST Thursday 6 October 2022 (issued every 10 minutes, with the page automatically refreshed every 10 minutes)

About weather observations | Map of weather stations | Latest weather observations for NT | Other Formats
Station Details ID: 014405 Name: MANINGRIDA AIRPORT Lat: -12.06 Lon: 134.23 Height: 28.1 m
Data from the previous 72 hours. | See also: Recent months at Maningrida Airport
Date/Time
CST
Temp
°C
App
Temp
°C
Dew
Point
°C
Rel
Hum
%
Delta-T
°C
Wind Press
QNH
hPa
Press
MSL
hPa
Rain since
9am
mm
Dir  Spd
km/h
Gust
km/h
Spd
kts
Gust
kts
06/04:30am 24.8 28.0 22.3 86 1.7 SSE 9 13 5 7 1010.1 1010.0 0.0
06/04:00am 25.1 28.2 22.2 84 1.9 SE 9 13 5 7 1009.9 1009.8 0.0
06/03:30am 25.3 28.2 22.4 84 2.0 SE 11 15 6 8 1009.9 1009.8 0.0
06/03:00am 25.1 28.3 22.4 85 1.8 SSE 9 13 5 7 1009.9 1009.8 0.0
06/02:30am 25.6 28.7 22.1 81 2.3 SE 9 11 5 6 1010.1 1010.0 0.0
06/02:00am 26.3 29.4 22.2 78 2.8 SE 9 13 5 7 1010.2 1010.1 0.0
06/01:30am 26.7 29.4 22.1 76 3.1 ESE 11 13 6 7 1010.5 1010.4 0.0
06/01:00am 27.2 29.8 22.6 76 3.1 ESE 13 17 7 9 1010.7 1010.6 0.0
06/12:30am 27.5 30.5 23.3 78 2.9 ESE 13 20 7 11 1010.9 1010.8 0.0
06/12:00am 27.8 31.7 24.2 81 2.5 E 11 17 6 9 1011.1 1011.0 0.0
 
Date/Time
CST
Temp
°C
App
Temp
°C
Dew
Point
°C
Rel
Hum
%
Delta-T
°C
Wind Press
QNH
hPa
Press
MSL
hPa
Rain since
9am
mm
Dir  Spd
km/h
Gust
km/h
Spd
kts
Gust
kts
05/11:30pm 28.2 31.9 24.6 81 2.5 E 13 22 7 12 1011.5 1011.3 0.0
05/11:00pm 28.5 32.3 24.7 80 2.7 E 13 20 7 11 1011.7 1011.5 0.0
05/10:30pm 28.7 32.2 24.9 80 2.7 ENE 15 24 8 13 1011.9 1011.7 0.0
05/10:00pm 28.8 31.5 24.1 76 3.3 ENE 17 28 9 15 1011.9 1011.7 0.0
05/09:30pm 28.6 32.2 24.4 78 2.9 ENE 13 20 7 11 1011.6 1011.4 0.0
05/09:00pm 28.5 32.9 24.5 79 2.8 ENE 9 15 5 8 1011.1 1011.0 0.0
05/08:30pm 28.5 32.8 24.3 78 2.9 ENE 9 13 5 7 1010.6 1010.5 0.0
05/08:00pm 28.7 32.9 24.7 79 2.8 ENE 11 19 6 10 1010.5 1010.4 0.0
05/07:30pm 28.7 32.5 24.7 79 2.8 NE 13 20 7 11 1010.1 1010.0 0.0
05/07:00pm 28.7 32.4 24.5 78 2.9 NE 13 17 7 9 1009.7 1009.6 0.0
05/06:30pm 28.9 32.8 24.2 76 3.3 NE 11 17 6 9 1009.2 1009.0 0.0
05/06:00pm 29.3 32.3 24.6 76 3.3 NE 17 26 9 14 1008.8 1008.6 0.0
05/05:30pm 29.7 32.5 24.3 73 3.8 NE 17 28 9 15 1008.6 1008.4 0.0
05/05:00pm 30.8 34.3 24.2 68 4.6 NE 13 20 7 11 1008.6 1008.4 0.0
05/04:30pm 30.9 33.4 23.8 66 4.9 NE 17 24 9 13 1008.4 1008.2 0.0
05/04:00pm 31.0 33.1 23.1 62 5.4 NNE 17 26 9 14 1008.3 1008.1 0.0
05/03:30pm 31.0 33.2 23.9 66 4.9 NNE 19 30 10 16 1008.5 1008.3 0.0
05/03:00pm 31.5 33.5 23.9 64 5.3 NNE 20 24 11 13 1008.6 1008.4 0.0
05/02:30pm 31.5 34.2 24.1 65 5.2 NE 17 26 9 14 1008.9 1008.7 0.0
05/02:00pm 32.0 34.1 24.1 63 5.5 NNE 20 30 11 16 1009.4 1009.3 0.0
05/01:30pm 31.5 33.3 23.6 63 5.5 NE 20 28 11 15 1009.8 1009.7 0.0
05/01:00pm 31.0 32.3 23.4 64 5.2 NE 22 30 12 16 1010.4 1010.3 0.0
05/12:30pm 31.4 32.5 23.0 61 5.8 ENE 22 32 12 17 1010.8 1010.7 0.0
05/12:00pm 32.0 34.0 23.0 59 6.2 ENE 17 26 9 14 1011.1 1011.0 0.0
05/11:30am 31.6 32.9 22.3 57 6.3 ENE 19 30 10 16 1011.6 1011.4 0.0
05/11:00am 31.2 31.6 21.7 57 6.4 ENE 22 33 12 18 1011.9 1011.7 0.0
05/10:30am 30.5 32.1 22.1 61 5.7 ENE 17 32 9 17 1012.0 1011.8 0.0
05/10:00am 30.3 32.6 22.7 64 5.2 ENE 15 22 8 12 1012.3 1012.1 0.0
05/09:30am 30.1 32.9 23.0 65 4.9 ENE 13 24 7 13 1011.9 1011.7 0.0
05/09:00am 29.0 32.0 23.4 72 3.9 E 13 17 7 9 1011.8 1011.6 5.0
05/08:30am 28.3 32.5 24.1 78 2.9 E 9 15 5 8 1011.7 1011.5 4.8
05/08:00am 27.3 31.5 23.5 80 2.6 SE 7 13 4 7 1011.5 1011.3 4.8
05/07:30am 26.2 30.2 23.1 83 2.1 SSE 7 11 4 6 1010.8 1010.7 4.8
05/07:00am 24.8 28.1 22.5 87 1.5 SE 9 13 5 7 1010.3 1010.2 4.8
05/06:30am 23.6 26.7 22.2 92 0.9 ESE 9 13 5 7 1009.9 1009.8 4.8
05/06:00am 23.5 26.7 22.3 93 0.8 ESE 9 13 5 7 1009.4 1009.3 4.8
05/05:30am 23.7 26.4 22.1 91 1.1 E 11 13 6 7 1008.8 1008.6 4.8
05/05:00am 24.0 26.7 22.1 89 1.3 ESE 11 17 6 9 1008.4 1008.2 4.8
05/04:30am 24.0 26.8 22.3 90 1.1 ESE 11 13 6 7 1008.5 1008.3 4.8
05/04:00am 23.9 27.2 22.5 92 0.9 SSE 9 11 5 6 1008.7 1008.5 4.8
05/03:30am 24.2 26.6 22.3 89 1.3 SE 13 15 7 8 1008.7 1008.5 4.8
05/03:00am 24.2 27.7 22.8 92 0.9 SE 9 11 5 6 1008.8 1008.6 4.8
05/02:30am 24.2 28.2 22.8 92 0.9 SSE 6 9 3 5 1009.2 1009.0 4.8
05/02:00am 24.3 27.7 22.7 91 1.1 SSE 9 11 5 6 1009.5 1009.4 4.8
05/01:30am 24.3 27.8 22.9 92 0.9 SSE 9 11 5 6 1010.3 1010.2 4.8
05/01:00am 24.2 27.8 23.0 93 0.8 SSE 9 11 5 6 1010.6 1010.5 4.8
05/12:30am 24.3 28.3 23.1 93 0.8 S 7 15 4 8 1011.3 1011.1 4.8
05/12:00am 24.6 27.9 23.2 92 0.9 S 11 17 6 9 1011.4 1011.2 4.8
 
Date/Time
CST
Temp
°C
App
Temp
°C
Dew
Point
°C
Rel
Hum
%
Delta-T
°C
Wind Press
QNH
hPa
Press
MSL
hPa
Rain since
9am
mm
Dir  Spd
km/h
Gust
km/h
Spd
kts
Gust
kts
04/11:37pm 26.0 29.3 23.9 88 1.4 SE 13 17 7 9 1011.7 1011.5 2.4
04/11:34pm 26.4 30.5 24.6 90 1.2 SE 11 17 6 9 1011.8 1011.6 1.0
04/11:30pm 26.4 30.2 24.1 87 1.6 S 11 17 6 9 1011.7 1011.5 0.6
04/11:19pm 26.8 32.1 24.3 86 1.7 SSE 4 15 2 8 1011.7 1011.5 0.6
04/11:00pm 27.4 32.1 24.3 83 2.1 S 7 9 4 5 1012.1 1011.9 0.0
04/10:30pm 27.5 32.3 24.4 83 2.2 S 7 11 4 6 1012.3 1012.1 0.0
04/10:00pm 27.2 32.1 24.3 84 2.0 S 6 9 3 5 1012.3 1012.1 0.0
04/09:30pm 27.2 33.3 24.5 85 1.9 CALM 0 0 0 0 1011.9 1011.7 0.0
04/09:00pm 27.5 32.8 24.4 83 2.2 S 4 7 2 4 1011.7 1011.5 0.0
04/08:30pm 27.8 34.0 24.6 83 2.2 CALM 0 0 0 0 1011.3 1011.1 0.0
04/08:00pm 28.2 34.4 24.6 81 2.5 CALM 0 0 0 0 1010.6 1010.5 0.0
04/07:30pm 28.3 34.2 24.1 78 2.9 CALM 0 0 0 0 1010.3 1010.2 0.0
04/07:00pm 28.5 33.2 24.3 78 2.9 NE 7 9 4 5 1009.9 1009.8 0.0
04/06:30pm 28.6 32.1 24.2 77 3.1 NNE 13 15 7 8 1009.3 1009.2 0.0
04/06:00pm 29.0 32.2 23.7 73 3.7 NNE 13 17 7 9 1009.0 1008.8 0.0
04/05:30pm 29.4 31.8 23.6 71 4.0 NNE 17 20 9 11 1008.7 1008.5 0.0
04/05:00pm 29.9 32.3 23.6 69 4.4 NNE 17 22 9 12 1008.1 1007.9 0.0
04/04:30pm 30.0 31.8 23.2 67 4.7 NE 19 32 10 17 1007.9 1007.7 0.0
04/04:00pm 30.5 31.8 23.4 66 4.9 NNE 22 33 12 18 1008.1 1007.9 0.0
04/03:30pm 31.1 33.2 23.7 64 5.1 NE 19 33 10 18 1008.0 1007.8 0.0
04/03:00pm 31.3 33.0 23.4 63 5.5 NNE 20 35 11 19 1008.4 1008.2 0.0
04/02:30pm 32.0 33.0 23.5 60 5.9 NNE 24 35 13 19 1008.5 1008.3 0.0
04/02:00pm 31.2 32.2 22.8 61 5.8 NNE 22 32 12 17 1008.9 1008.7 0.0
04/01:30pm 32.2 33.3 22.3 56 6.8 NNE 20 30 11 16 1009.4 1009.3 0.0
04/01:00pm 32.5 34.7 24.0 61 5.9 NNE 19 30 10 16 1009.9 1009.8 0.0
04/12:30pm 31.7 33.3 22.1 56 6.5 NE 17 28 9 15 1010.5 1010.4 0.0
04/12:00pm 31.7 33.7 23.0 60 6.0 NE 17 24 9 13 1010.9 1010.8 0.0
04/11:30am 31.9 33.0 22.0 55 6.7 NNE 19 30 10 16 1011.3 1011.1 0.0
04/11:00am 31.6 34.7 24.2 65 5.2 N 15 26 8 14 1011.6 1011.4 0.0
04/10:30am 31.5 35.0 23.6 63 5.5 NE 11 20 6 11 1011.9 1011.7 0.0
04/10:00am 30.5 35.4 25.3 74 3.7 NNW 9 13 5 7 1012.1 1011.9 0.0
04/09:30am 29.6 34.9 24.9 76 3.3 NW 6 9 3 5 1012.1 1011.9 0.0
04/09:00am 29.1 33.8 24.0 74 3.5 N 6 9 3 5 1012.0 1011.8 0.0
04/08:30am 29.1 35.4 24.7 77 3.1 CALM 0 0 0 0 1011.9 1011.7 0.0
04/08:00am 28.0 34.5 25.0 84 2.1 CALM 0 0 0 0 1011.6 1011.4 0.0
04/07:30am 26.9 33.2 24.7 88 1.5 CALM 0 0 0 0 1011.5 1011.3 0.0
04/07:00am 26.0 32.3 24.8 93 0.8 CALM 0 0 0 0 1011.1 1011.0 0.0
04/06:30am 25.6 30.5 24.7 95 0.6 S 7 9 4 5 1010.5 1010.4 0.0
04/06:00am 25.4 31.5 24.5 95 0.6 CALM 0 0 0 0 1010.3 1010.2 0.0
04/05:30am 25.4 31.7 24.7 96 0.5 CALM 0 0 0 0 1009.9 1009.8 0.0
04/05:00am 25.3 31.5 24.6 96 0.5 CALM 0 0 0 0 1009.6 1009.5 0.0
04/04:30am 25.4 31.7 24.7 96 0.5 CALM 0 0 0 0 1009.1 1008.9 0.0
04/04:00am 25.4 31.5 24.5 95 0.6 CALM 0 0 0 0 1008.8 1008.6 0.0
04/03:30am 25.5 31.6 24.5 94 0.7 CALM 0 0 0 0 1008.7 1008.5 0.0
04/03:00am 25.6 31.7 24.4 93 0.8 CALM 0 0 0 0 1008.8 1008.6 0.0
04/02:30am 25.8 32.0 24.6 93 0.8 CALM 0 0 0 0 1008.9 1008.7 0.0
04/02:00am 26.0 32.0 24.2 90 1.2 CALM 0 0 0 0 1008.9 1008.7 0.0
04/01:30am 26.4 32.5 24.4 89 1.4 CALM 0 0 0 0 1009.0 1008.8 0.0
04/01:00am 27.1 32.9 24.0 83 2.1 CALM 0 0 0 0 1009.0 1008.8 0.0
04/12:30am 27.3 33.3 24.2 83 2.1 CALM 0 0 0 0 1009.2 1009.0 0.0
04/12:00am 27.3 33.3 24.2 83 2.1 CALM 0 0 0 0 1009.4 1009.3 0.0
 
Date/Time
CST
Temp
°C
App
Temp
°C
Dew
Point
°C
Rel
Hum
%
Delta-T
°C
Wind Press
QNH
hPa
Press
MSL
hPa
Rain since
9am
mm
Dir  Spd
km/h
Gust
km/h
Spd
kts
Gust
kts
03/11:30pm 27.6 33.2 24.2 82 2.4 NE 2 7 1 4 1009.3 1009.2 0.0
03/11:00pm 27.7 32.5 24.1 81 2.5 NE 6 7 3 4 1009.5 1009.4 0.0
03/10:30pm 27.8 32.7 24.4 82 2.4 NNE 6 9 3 5 1009.5 1009.4 0.0
03/10:00pm 27.7 32.5 24.5 83 2.2 NNE 7 9 4 5 1009.4 1009.3 0.0
03/09:30pm 27.7 32.5 24.5 83 2.2 NE 7 11 4 6 1009.1 1008.9 0.0
03/09:00pm 27.8 32.4 24.8 84 2.1 NNE 9 13 5 7 1008.9 1008.7 0.0
03/08:30pm 27.8 32.3 24.6 83 2.2 NNE 9 13 5 7 1008.6 1008.4 0.0
03/08:00pm 27.9 32.7 24.5 82 2.4 NNE 7 11 4 6 1008.3 1008.1 0.0
03/07:30pm 28.1 32.2 24.5 81 2.5 NNE 11 13 6 7 1008.1 1007.9 0.0
03/07:00pm 28.2 32.3 24.6 81 2.5 NNE 11 15 6 8 1007.9 1007.7 0.0
03/06:30pm 28.4 32.0 24.4 79 2.8 NNE 13 17 7 9 1007.7 1007.5 0.0
03/06:00pm 28.9 32.4 24.2 76 3.3 NNE 13 17 7 9 1007.3 1007.1 0.0
03/05:30pm 29.2 32.5 23.9 73 3.7 N 13 15 7 8 1007.0 1006.8 0.0
03/05:00pm 30.0 32.6 23.9 70 4.2 NNE 17 22 9 12 1006.5 1006.3 0.0
03/04:30pm 30.6 33.8 24.3 69 4.4 N 15 20 8 11 1006.4 1006.2 0.0
03/04:00pm 30.5 33.4 24.4 70 4.3 N 17 24 9 13 1006.3 1006.1 0.0
03/03:30pm 30.4 33.2 24.3 70 4.3 NNE 17 22 9 12 1006.1 1005.9 0.0
03/03:00pm 30.8 32.7 23.5 65 5.1 N 19 24 10 13 1006.1 1005.9 0.0
03/02:30pm 30.6 32.1 22.7 62 5.4 NNE 19 26 10 14 1006.2 1006.0 0.0
03/02:00pm 31.2 32.0 21.7 57 6.4 N 20 26 11 14 1006.6 1006.4 0.0
03/01:30pm 31.5 33.8 24.1 65 5.2 N 19 26 10 14 1007.0 1006.8 0.0
03/01:00pm 30.4 32.4 23.6 67 4.7 N 19 24 10 13 1007.6 1007.4 0.0
03/12:30pm 30.9 33.1 24.8 70 4.3 N 22 30 12 16 1008.2 1008.0 0.0
03/12:00pm 30.9 33.4 23.8 66 4.9 N 17 24 9 13 1008.9 1008.7 0.0
03/11:30am 30.3 32.7 24.2 70 4.3 NNE 19 26 10 14 1009.5 1009.4 0.0
03/11:00am 30.4 32.6 24.3 70 4.3 N 20 24 11 13 1009.8 1009.7 0.0
03/10:30am 30.5 33.1 24.6 70 4.1 N 19 24 10 13 1010.1 1010.0 0.0
03/10:00am 30.0 33.1 24.2 71 4.0 NNE 15 28 8 15 1010.2 1010.1 0.0
03/09:30am 29.5 32.9 24.1 72 3.8 N 13 17 7 9 1010.8 1010.7 0.0
03/09:00am 29.4 34.3 24.7 76 3.3 N 7 13 4 7 1010.9 1010.8 0.0
03/08:30am 28.4 34.1 24.4 79 2.8 E 2 7 1 4 1010.3 1010.2 0.0
03/08:00am 27.5 33.7 24.6 84 2.0 CALM 0 0 0 0 1010.1 1010.0 0.0
03/07:30am 26.1 30.8 24.0 88 1.4 SSW 6 7 3 4 1009.8 1009.7 0.0
03/07:00am 25.6 31.6 24.2 92 1.0 CALM 0 0 0 0 1009.5 1009.4 0.0
03/06:30am 25.3 31.2 24.1 93 0.8 CALM 0 0 0 0 1009.1 1008.9 0.0
03/06:00am 25.2 30.9 23.8 92 1.0 CALM 0 0 0 0 1008.8 1008.6 0.0
03/05:30am 25.3 31.1 23.9 92 1.0 CALM 0 0 0 0 1008.6 1008.4 0.0
03/05:00am 25.3 31.2 24.1 93 0.8 CALM 0 6 0 3 1008.3 1008.1 0.0

Other formats

Comma delimited format used in spreadsheet applications
http://www.bom.gov.au/fwo/IDD60801/IDD60801.95142.axf

JavaScript Object Notation format (JSON) in row-major order
http://www.bom.gov.au/fwo/IDD60801/IDD60801.95142.json

Data quality

Most of these data are generated automatically and are frequently updated. Quality checks on data are not normally performed. It is possible for incorrect values to appear. Refer to information at About Latest Weather Observations and please check the disclaimer before using these data.